Terminal Aerodrome Forecast
Issued by NWS Tuscon, AZ

Home | Current Version | Previous Version | Text Only | Print | Product List | Glossary On
Versions: 1 2 3 4 5 6 7 8 9 10 11 12 13 14 15
709
FTUS45 KTWC 260002 AAA
TAFTUS
TAF AMD
KTUS 260002Z 2600/2624 08011KT P6SM VCSH SCT120 SCT250
     FM260200 09012KT P6SM SCT100 SCT200
     FM260700 11019G28KT P6SM SCT100 BKN150
     FM261200 12022G30KT P6SM VCSH BKN090 OVC120 PROB30 2612/2617
      SHRA
     FM261700 11028G36KT P6SM VCSH BKN070 OVC100 PROB30 2617/2624
      SHRA=

USA.gov is the U.S. government's official web portal to all federal, state and local government web resources and services.